sensor_id;sensor_type;location;lat;lon;timestamp;temperature;humidity
54124;DHT22;55741;53.252;5.788;2022-11-06T00:00:19;10.30;99.90
54124;DHT22;55741;53.252;5.788;2022-11-06T00:02:45;10.30;99.90
54124;DHT22;55741;53.252;5.788;2022-11-06T00:05:11;10.30;99.90
54124;DHT22;55741;53.252;5.788;2022-11-06T00:07:56;10.20;99.90
54124;DHT22;55741;53.252;5.788;2022-11-06T00:10:22;10.30;99.90
54124;DHT22;55741;53.252;5.788;2022-11-06T00:12:48;10.20;99.90
54124;DHT22;55741;53.252;5.788;2022-11-06T00:15:16;10.20;99.90
54124;DHT22;55741;53.252;5.788;2022-11-06T00:17:42;10.20;99.90
54124;DHT22;55741;53.252;5.788;2022-11-06T00:20:09;10.30;99.90
54124;DHT22;55741;53.252;5.788;2022-11-06T00:22:35;10.20;99.90
54124;DHT22;55741;53.252;5.788;2022-11-06T00:25:03;10.20;99.90
54124;DHT22;55741;53.252;5.788;2022-11-06T00:27:29;10.30;99.90
54124;DHT22;55741;53.252;5.788;2022-11-06T00:29:55;10.30;99.90
54124;DHT22;55741;53.252;5.788;2022-11-06T00:32:21;10.30;99.90
54124;DHT22;55741;53.252;5.788;2022-11-06T00:34:47;10.30;99.90
54124;DHT22;55741;53.252;5.788;2022-11-06T00:37:13;10.30;99.90
54124;DHT22;55741;53.252;5.788;2022-11-06T00:39:39;10.40;99.90
54124;DHT22;55741;53.252;5.788;2022-11-06T00:42:04;10.40;99.90
54124;DHT22;55741;53.252;5.788;2022-11-06T00:44:30;10.40;99.90
54124;DHT22;55741;53.252;5.788;2022-11-06T00:46:56;10.40;99.90
54124;DHT22;55741;53.252;5.788;2022-11-06T00:49:22;10.40;99.90
54124;DHT22;55741;53.252;5.788;2022-11-06T00:51:48;10.40;99.90
54124;DHT22;55741;53.252;5.788;2022-11-06T00:54:13;10.50;99.90
54124;DHT22;55741;53.252;5.788;2022-11-06T00:56:39;10.50;99.90
54124;DHT22;55741;53.252;5.788;2022-11-06T00:59:07;10.40;99.90
54124;DHT22;55741;53.252;5.788;2022-11-06T01:01:37;10.50;99.90
54124;DHT22;55741;53.252;5.788;2022-11-06T01:04:10;10.50;99.90
54124;DHT22;55741;53.252;5.788;2022-11-06T01:06:42;10.50;99.90
54124;DHT22;55741;53.252;5.788;2022-11-06T01:09:10;10.50;99.90
54124;DHT22;55741;53.252;5.788;2022-11-06T01:11:42;10.50;99.90
54124;DHT22;55741;53.252;5.788;2022-11-06T01:14:11;10.50;99.90
54124;DHT22;55741;53.252;5.788;2022-11-06T01:16:39;10.50;99.90
54124;DHT22;55741;53.252;5.788;2022-11-06T01:19:05;10.50;99.90
54124;DHT22;55741;53.252;5.788;2022-11-06T01:21:33;10.50;99.90
54124;DHT22;55741;53.252;5.788;2022-11-06T01:24:04;10.50;99.90
54124;DHT22;55741;53.252;5.788;2022-11-06T01:26:30;10.50;99.90
54124;DHT22;55741;53.252;5.788;2022-11-06T01:28:56;10.50;99.90
54124;DHT22;55741;53.252;5.788;2022-11-06T01:31:25;10.60;99.90
54124;DHT22;55741;53.252;5.788;2022-11-06T01:33:52;10.60;99.90
54124;DHT22;55741;53.252;5.788;2022-11-06T01:36:19;10.60;99.90
54124;DHT22;55741;53.252;5.788;2022-11-06T01:38:48;10.60;99.90
54124;DHT22;55741;53.252;5.788;2022-11-06T01:41:17;10.60;99.90
54124;DHT22;55741;53.252;5.788;2022-11-06T01:46:26;10.60;99.90
54124;DHT22;55741;53.252;5.788;2022-11-06T01:48:56;10.60;99.90
54124;DHT22;55741;53.252;5.788;2022-11-06T01:51:25;10.60;99.90
54124;DHT22;55741;53.252;5.788;2022-11-06T01:53:53;10.60;99.90
54124;DHT22;55741;53.252;5.788;2022-11-06T01:56:20;10.60;99.90
54124;DHT22;55741;53.252;5.788;2022-11-06T01:58:50;10.60;99.90
54124;DHT22;55741;53.252;5.788;2022-11-06T02:01:16;10.60;99.90
54124;DHT22;55741;53.252;5.788;2022-11-06T02:03:52;10.60;99.90
54124;DHT22;55741;53.252;5.788;2022-11-06T02:06:19;10.60;99.90
54124;DHT22;55741;53.252;5.788;2022-11-06T02:08:46;10.60;99.90
54124;DHT22;55741;53.252;5.788;2022-11-06T02:11:12;10.60;99.90
54124;DHT22;55741;53.252;5.788;2022-11-06T02:17:13;10.60;99.90
54124;DHT22;55741;53.252;5.788;2022-11-06T02:19:42;10.60;99.90
54124;DHT22;55741;53.252;5.788;2022-11-06T02:25:14;10.60;99.90
54124;DHT22;55741;53.252;5.788;2022-11-06T02:27:48;10.60;99.90
54124;DHT22;55741;53.252;5.788;2022-11-06T02:30:16;10.60;99.90
54124;DHT22;55741;53.252;5.788;2022-11-06T02:33:01;10.60;99.90
54124;DHT22;55741;53.252;5.788;2022-11-06T02:35:34;10.60;99.90
54124;DHT22;55741;53.252;5.788;2022-11-06T02:38:07;10.60;99.90
54124;DHT22;55741;53.252;5.788;2022-11-06T02:40:35;10.60;99.90
54124;DHT22;55741;53.252;5.788;2022-11-06T02:43:05;10.60;99.90
54124;DHT22;55741;53.252;5.788;2022-11-06T02:45:40;10.60;99.90
54124;DHT22;55741;53.252;5.788;2022-11-06T02:48:09;10.60;99.90
54124;DHT22;55741;53.252;5.788;2022-11-06T02:50:40;10.60;99.90
54124;DHT22;55741;53.252;5.788;2022-11-06T02:53:08;10.60;99.90
54124;DHT22;55741;53.252;5.788;2022-11-06T02:55:40;10.60;99.90
54124;DHT22;55741;53.252;5.788;2022-11-06T02:58:13;10.60;99.90
54124;DHT22;55741;53.252;5.788;2022-11-06T03:00:44;10.60;99.90
54124;DHT22;55741;53.252;5.788;2022-11-06T03:03:27;10.60;99.90
54124;DHT22;55741;53.252;5.788;2022-11-06T03:05:56;10.60;99.90
54124;DHT22;55741;53.252;5.788;2022-11-06T03:13:50;10.60;99.90
54124;DHT22;55741;53.252;5.788;2022-11-06T03:16:56;10.60;99.90
54124;DHT22;55741;53.252;5.788;2022-11-06T03:19:44;10.60;99.90
54124;DHT22;55741;53.252;5.788;2022-11-06T03:22:26;10.60;99.90
54124;DHT22;55741;53.252;5.788;2022-11-06T03:25:04;10.60;99.90
54124;DHT22;55741;53.252;5.788;2022-11-06T03:30:13;10.60;99.90
54124;DHT22;55741;53.252;5.788;2022-11-06T03:32:49;10.60;99.90
54124;DHT22;55741;53.252;5.788;2022-11-06T03:35:33;10.60;99.90
54124;DHT22;55741;53.252;5.788;2022-11-06T03:40:47;10.60;99.90
54124;DHT22;55741;53.252;5.788;2022-11-06T03:43:16;10.60;99.90
54124;DHT22;55741;53.252;5.788;2022-11-06T03:45:44;10.60;99.90
54124;DHT22;55741;53.252;5.788;2022-11-06T03:48:24;10.60;99.90
54124;DHT22;55741;53.252;5.788;2022-11-06T03:51:19;10.60;99.90
54124;DHT22;55741;53.252;5.788;2022-11-06T03:53:51;10.60;99.90
54124;DHT22;55741;53.252;5.788;2022-11-06T03:56:29;10.60;99.90
54124;DHT22;55741;53.252;5.788;2022-11-06T03:59:02;10.60;99.90
54124;DHT22;55741;53.252;5.788;2022-11-06T04:01:36;10.60;99.90
54124;DHT22;55741;53.252;5.788;2022-11-06T04:04:08;10.60;99.90
54124;DHT22;55741;53.252;5.788;2022-11-06T04:06:41;10.60;99.90
54124;DHT22;55741;53.252;5.788;2022-11-06T04:09:11;10.60;99.90
54124;DHT22;55741;53.252;5.788;2022-11-06T04:12:00;10.60;99.90
54124;DHT22;55741;53.252;5.788;2022-11-06T04:14:48;10.60;99.90
54124;DHT22;55741;53.252;5.788;2022-11-06T04:17:16;10.60;99.90
54124;DHT22;55741;53.252;5.788;2022-11-06T04:19:48;10.60;99.90
54124;DHT22;55741;53.252;5.788;2022-11-06T04:22:43;10.60;99.90
54124;DHT22;55741;53.252;5.788;2022-11-06T04:25:34;10.60;99.90
54124;DHT22;55741;53.252;5.788;2022-11-06T04:28:47;10.60;99.90
54124;DHT22;55741;53.252;5.788;2022-11-06T04:31:20;10.60;99.90
54124;DHT22;55741;53.252;5.788;2022-11-06T04:34:07;10.60;99.90
54124;DHT22;55741;53.252;5.788;2022-11-06T04:36:49;10.60;99.90
54124;DHT22;55741;53.252;5.788;2022-11-06T04:39:35;10.60;99.90
54124;DHT22;55741;53.252;5.788;2022-11-06T04:44:42;10.60;99.90
54124;DHT22;55741;53.252;5.788;2022-11-06T04:47:16;10.60;99.90
54124;DHT22;55741;53.252;5.788;2022-11-06T04:49:43;10.60;99.90
54124;DHT22;55741;53.252;5.788;2022-11-06T04:52:15;10.70;99.90
54124;DHT22;55741;53.252;5.788;2022-11-06T04:54:44;10.60;99.90
54124;DHT22;55741;53.252;5.788;2022-11-06T04:57:10;10.70;99.90
54124;DHT22;55741;53.252;5.788;2022-11-06T04:59:36;10.70;99.90
54124;DHT22;55741;53.252;5.788;2022-11-06T05:02:03;10.60;99.90
54124;DHT22;55741;53.252;5.788;2022-11-06T05:04:29;10.70;99.90
54124;DHT22;55741;53.252;5.788;2022-11-06T05:06:55;10.70;99.90
54124;DHT22;55741;53.252;5.788;2022-11-06T05:09:22;10.70;99.90
54124;DHT22;55741;53.252;5.788;2022-11-06T05:11:48;10.70;99.90
54124;DHT22;55741;53.252;5.788;2022-11-06T05:14:14;10.70;99.90
54124;DHT22;55741;53.252;5.788;2022-11-06T05:16:39;10.70;99.90
54124;DHT22;55741;53.252;5.788;2022-11-06T05:19:06;10.70;99.90
54124;DHT22;55741;53.252;5.788;2022-11-06T05:21:32;10.70;99.90
54124;DHT22;55741;53.252;5.788;2022-11-06T05:24:26;10.60;99.90
54124;DHT22;55741;53.252;5.788;2022-11-06T05:26:51;10.60;99.90
54124;DHT22;55741;53.252;5.788;2022-11-06T05:29:17;10.60;99.90
54124;DHT22;55741;53.252;5.788;2022-11-06T05:31:43;10.60;99.90
54124;DHT22;55741;53.252;5.788;2022-11-06T05:34:09;10.60;99.90
54124;DHT22;55741;53.252;5.788;2022-11-06T05:36:35;10.60;99.90
54124;DHT22;55741;53.252;5.788;2022-11-06T05:39:00;10.60;99.90
54124;DHT22;55741;53.252;5.788;2022-11-06T05:41:26;10.60;99.90
54124;DHT22;55741;53.252;5.788;2022-11-06T05:43:52;10.60;99.90
54124;DHT22;55741;53.252;5.788;2022-11-06T05:46:18;10.60;99.90
54124;DHT22;55741;53.252;5.788;2022-11-06T05:48:44;10.60;99.90
54124;DHT22;55741;53.252;5.788;2022-11-06T05:51:09;10.60;99.90
54124;DHT22;55741;53.252;5.788;2022-11-06T05:53:36;10.60;99.90
54124;DHT22;55741;53.252;5.788;2022-11-06T05:56:02;10.60;99.90
54124;DHT22;55741;53.252;5.788;2022-11-06T05:58:28;10.60;99.90
54124;DHT22;55741;53.252;5.788;2022-11-06T06:00:54;10.50;99.90
54124;DHT22;55741;53.252;5.788;2022-11-06T06:03:21;10.50;99.90
54124;DHT22;55741;53.252;5.788;2022-11-06T06:05:47;10.50;99.90
54124;DHT22;55741;53.252;5.788;2022-11-06T06:08:13;10.50;99.90
54124;DHT22;55741;53.252;5.788;2022-11-06T06:10:43;10.50;99.90
54124;DHT22;55741;53.252;5.788;2022-11-06T06:13:10;10.50;99.90
54124;DHT22;55741;53.252;5.788;2022-11-06T06:15:40;10.50;99.90
54124;DHT22;55741;53.252;5.788;2022-11-06T06:18:06;10.50;99.90
54124;DHT22;55741;53.252;5.788;2022-11-06T06:20:33;10.40;99.90
54124;DHT22;55741;53.252;5.788;2022-11-06T06:22:59;10.50;99.90
54124;DHT22;55741;53.252;5.788;2022-11-06T06:25:27;10.50;99.90
54124;DHT22;55741;53.252;5.788;2022-11-06T06:27:54;10.50;99.90
54124;DHT22;55741;53.252;5.788;2022-11-06T06:30:20;10.40;99.90
54124;DHT22;55741;53.252;5.788;2022-11-06T06:32:48;10.40;99.90
54124;DHT22;55741;53.252;5.788;2022-11-06T06:35:14;10.40;99.90
54124;DHT22;55741;53.252;5.788;2022-11-06T06:37:39;10.40;99.90
54124;DHT22;55741;53.252;5.788;2022-11-06T06:40:06;10.30;99.90
54124;DHT22;55741;53.252;5.788;2022-11-06T06:42:32;10.30;99.90
54124;DHT22;55741;53.252;5.788;2022-11-06T06:44:57;10.30;99.90
54124;DHT22;55741;53.252;5.788;2022-11-06T06:47:23;10.30;99.90
54124;DHT22;55741;53.252;5.788;2022-11-06T06:49:49;10.30;99.90
54124;DHT22;55741;53.252;5.788;2022-11-06T06:52:15;10.20;99.90
54124;DHT22;55741;53.252;5.788;2022-11-06T06:54:41;10.20;99.90
54124;DHT22;55741;53.252;5.788;2022-11-06T06:57:07;10.20;99.90
54124;DHT22;55741;53.252;5.788;2022-11-06T06:59:33;10.20;99.90
54124;DHT22;55741;53.252;5.788;2022-11-06T07:02:00;10.20;99.90
54124;DHT22;55741;53.252;5.788;2022-11-06T07:04:26;10.20;99.90
54124;DHT22;55741;53.252;5.788;2022-11-06T07:06:54;10.10;99.90
54124;DHT22;55741;53.252;5.788;2022-11-06T07:09:21;10.20;99.90
54124;DHT22;55741;53.252;5.788;2022-11-06T07:11:48;10.20;99.90
54124;DHT22;55741;53.252;5.788;2022-11-06T07:14:14;10.10;99.90
54124;DHT22;55741;53.252;5.788;2022-11-06T07:16:40;10.10;99.90
54124;DHT22;55741;53.252;5.788;2022-11-06T07:19:05;10.10;99.90
54124;DHT22;55741;53.252;5.788;2022-11-06T07:21:31;10.10;99.90
54124;DHT22;55741;53.252;5.788;2022-11-06T07:23:57;10.10;99.90
54124;DHT22;55741;53.252;5.788;2022-11-06T07:26:24;10.10;99.90
54124;DHT22;55741;53.252;5.788;2022-11-06T07:28:50;10.10;99.90
54124;DHT22;55741;53.252;5.788;2022-11-06T07:31:16;10.10;99.90
54124;DHT22;55741;53.252;5.788;2022-11-06T07:33:42;10.10;99.90
54124;DHT22;55741;53.252;5.788;2022-11-06T07:36:10;10.10;99.90
54124;DHT22;55741;53.252;5.788;2022-11-06T07:38:38;10.10;99.90
54124;DHT22;55741;53.252;5.788;2022-11-06T07:41:06;10.10;99.90
54124;DHT22;55741;53.252;5.788;2022-11-06T07:43:33;10.10;99.90
54124;DHT22;55741;53.252;5.788;2022-11-06T07:46:00;10.10;99.90
54124;DHT22;55741;53.252;5.788;2022-11-06T07:48:30;10.10;99.90
54124;DHT22;55741;53.252;5.788;2022-11-06T07:50:56;10.10;99.90
54124;DHT22;55741;53.252;5.788;2022-11-06T07:53:23;10.10;99.90
54124;DHT22;55741;53.252;5.788;2022-11-06T07:55:50;10.10;99.90
54124;DHT22;55741;53.252;5.788;2022-11-06T07:58:16;10.10;99.90
54124;DHT22;55741;53.252;5.788;2022-11-06T08:00:47;10.10;99.90
54124;DHT22;55741;53.252;5.788;2022-11-06T08:03:13;10.10;99.90
54124;DHT22;55741;53.252;5.788;2022-11-06T08:05:38;10.10;99.90
54124;DHT22;55741;53.252;5.788;2022-11-06T08:08:04;10.10;99.90
54124;DHT22;55741;53.252;5.788;2022-11-06T08:10:30;10.10;99.90
54124;DHT22;55741;53.252;5.788;2022-11-06T08:12:59;10.10;99.90
54124;DHT22;55741;53.252;5.788;2022-11-06T08:15:24;10.10;99.90
54124;DHT22;55741;53.252;5.788;2022-11-06T08:17:50;10.10;99.90
54124;DHT22;55741;53.252;5.788;2022-11-06T08:20:16;10.10;99.90
54124;DHT22;55741;53.252;5.788;2022-11-06T08:22:42;10.10;99.90
54124;DHT22;55741;53.252;5.788;2022-11-06T08:25:08;10.10;99.90
54124;DHT22;55741;53.252;5.788;2022-11-06T08:27:36;10.10;99.90
54124;DHT22;55741;53.252;5.788;2022-11-06T08:30:03;10.10;99.90
54124;DHT22;55741;53.252;5.788;2022-11-06T08:32:29;10.00;99.90
54124;DHT22;55741;53.252;5.788;2022-11-06T08:34:55;10.00;99.90
54124;DHT22;55741;53.252;5.788;2022-11-06T08:37:21;10.00;99.90
54124;DHT22;55741;53.252;5.788;2022-11-06T08:39:46;10.00;99.90
54124;DHT22;55741;53.252;5.788;2022-11-06T08:42:12;10.00;99.90
54124;DHT22;55741;53.252;5.788;2022-11-06T08:44:38;10.00;99.90
54124;DHT22;55741;53.252;5.788;2022-11-06T08:47:07;10.10;99.90
54124;DHT22;55741;53.252;5.788;2022-11-06T08:49:33;10.10;99.90
54124;DHT22;55741;53.252;5.788;2022-11-06T08:51:59;10.10;99.90
54124;DHT22;55741;53.252;5.788;2022-11-06T08:54:25;10.10;99.90
54124;DHT22;55741;53.252;5.788;2022-11-06T08:56:51;10.20;99.90
54124;DHT22;55741;53.252;5.788;2022-11-06T08:59:16;10.20;99.90
54124;DHT22;55741;53.252;5.788;2022-11-06T09:01:42;10.10;99.90
54124;DHT22;55741;53.252;5.788;2022-11-06T09:04:08;10.10;99.90
54124;DHT22;55741;53.252;5.788;2022-11-06T09:06:34;10.20;99.90
54124;DHT22;55741;53.252;5.788;2022-11-06T09:08:59;10.20;99.90
54124;DHT22;55741;53.252;5.788;2022-11-06T09:11:25;10.20;99.90
54124;DHT22;55741;53.252;5.788;2022-11-06T09:13:51;10.20;99.90
54124;DHT22;55741;53.252;5.788;2022-11-06T09:16:17;10.20;99.90
54124;DHT22;55741;53.252;5.788;2022-11-06T09:18:43;10.20;99.90
54124;DHT22;55741;53.252;5.788;2022-11-06T09:21:08;10.20;99.90
54124;DHT22;55741;53.252;5.788;2022-11-06T09:23:35;10.20;99.90
54124;DHT22;55741;53.252;5.788;2022-11-06T09:26:00;10.10;99.90
54124;DHT22;55741;53.252;5.788;2022-11-06T09:28:28;10.10;99.90
54124;DHT22;55741;53.252;5.788;2022-11-06T09:30:54;10.10;99.90
54124;DHT22;55741;53.252;5.788;2022-11-06T09:33:19;10.10;99.90
54124;DHT22;55741;53.252;5.788;2022-11-06T09:35:45;10.10;99.90
54124;DHT22;55741;53.252;5.788;2022-11-06T09:38:12;10.10;99.90
54124;DHT22;55741;53.252;5.788;2022-11-06T09:40:47;10.10;99.90
54124;DHT22;55741;53.252;5.788;2022-11-06T09:43:24;10.10;99.90
54124;DHT22;55741;53.252;5.788;2022-11-06T09:45:54;10.10;99.90
54124;DHT22;55741;53.252;5.788;2022-11-06T09:48:25;10.10;99.90
54124;DHT22;55741;53.252;5.788;2022-11-06T09:50:57;10.10;99.90
54124;DHT22;55741;53.252;5.788;2022-11-06T09:53:33;10.10;99.90
54124;DHT22;55741;53.252;5.788;2022-11-06T09:56:01;10.10;99.90
54124;DHT22;55741;53.252;5.788;2022-11-06T09:58:40;10.10;99.90
54124;DHT22;55741;53.252;5.788;2022-11-06T10:01:34;10.10;99.90
54124;DHT22;55741;53.252;5.788;2022-11-06T10:04:03;10.20;99.90
54124;DHT22;55741;53.252;5.788;2022-11-06T10:06:30;10.10;99.90
54124;DHT22;55741;53.252;5.788;2022-11-06T10:09:02;10.20;99.90
54124;DHT22;55741;53.252;5.788;2022-11-06T10:11:53;10.10;99.90
54124;DHT22;55741;53.252;5.788;2022-11-06T10:14:30;10.20;99.90
54124;DHT22;55741;53.252;5.788;2022-11-06T10:17:26;10.20;99.90
54124;DHT22;55741;53.252;5.788;2022-11-06T10:20:00;10.20;99.90
54124;DHT22;55741;53.252;5.788;2022-11-06T10:22:42;10.20;99.90
54124;DHT22;55741;53.252;5.788;2022-11-06T10:25:19;10.20;99.90
54124;DHT22;55741;53.252;5.788;2022-11-06T10:27:57;10.30;99.90
54124;DHT22;55741;53.252;5.788;2022-11-06T10:31:06;10.30;99.90
54124;DHT22;55741;53.252;5.788;2022-11-06T10:33:54;10.20;99.90
54124;DHT22;55741;53.252;5.788;2022-11-06T10:36:28;10.30;99.90
54124;DHT22;55741;53.252;5.788;2022-11-06T10:38:55;10.30;99.90
54124;DHT22;55741;53.252;5.788;2022-11-06T10:41:30;10.30;99.90
54124;DHT22;55741;53.252;5.788;2022-11-06T10:44:05;10.30;99.90
54124;DHT22;55741;53.252;5.788;2022-11-06T10:46:36;10.30;99.90
54124;DHT22;55741;53.252;5.788;2022-11-06T10:57:54;10.40;99.90
54124;DHT22;55741;53.252;5.788;2022-11-06T11:00:21;10.40;99.90
54124;DHT22;55741;53.252;5.788;2022-11-06T11:02:52;10.40;99.90
54124;DHT22;55741;53.252;5.788;2022-11-06T11:05:22;10.40;99.90
54124;DHT22;55741;53.252;5.788;2022-11-06T11:07:49;10.50;99.90
54124;DHT22;55741;53.252;5.788;2022-11-06T11:12:55;10.50;99.90
54124;DHT22;55741;53.252;5.788;2022-11-06T11:15:26;10.60;99.90
54124;DHT22;55741;53.252;5.788;2022-11-06T11:18:26;10.60;99.90
54124;DHT22;55741;53.252;5.788;2022-11-06T11:24:07;10.70;99.90
54124;DHT22;55741;53.252;5.788;2022-11-06T11:26:37;10.70;99.90
54124;DHT22;55741;53.252;5.788;2022-11-06T11:29:14;10.70;99.90
54124;DHT22;55741;53.252;5.788;2022-11-06T11:31:48;10.70;99.90
54124;DHT22;55741;53.252;5.788;2022-11-06T11:34:18;10.70;99.90
54124;DHT22;55741;53.252;5.788;2022-11-06T11:36:57;10.80;99.90
54124;DHT22;55741;53.252;5.788;2022-11-06T11:39:32;10.80;99.90
54124;DHT22;55741;53.252;5.788;2022-11-06T11:44:45;10.80;99.90
54124;DHT22;55741;53.252;5.788;2022-11-06T11:47:22;10.80;99.90
54124;DHT22;55741;53.252;5.788;2022-11-06T11:49:49;10.80;99.90
54124;DHT22;55741;53.252;5.788;2022-11-06T11:52:19;10.90;99.90
54124;DHT22;55741;53.252;5.788;2022-11-06T11:54:49;10.80;99.90
54124;DHT22;55741;53.252;5.788;2022-11-06T11:57:21;10.90;99.90
54124;DHT22;55741;53.252;5.788;2022-11-06T11:59:54;10.90;99.90
54124;DHT22;55741;53.252;5.788;2022-11-06T12:02:39;10.90;99.90
54124;DHT22;55741;53.252;5.788;2022-11-06T12:05:10;11.00;99.90
54124;DHT22;55741;53.252;5.788;2022-11-06T12:07:40;11.00;99.90
54124;DHT22;55741;53.252;5.788;2022-11-06T12:10:29;11.00;99.90
54124;DHT22;55741;53.252;5.788;2022-11-06T12:12:58;11.10;99.90
54124;DHT22;55741;53.252;5.788;2022-11-06T12:16:01;11.10;99.90
54124;DHT22;55741;53.252;5.788;2022-11-06T12:18:38;11.20;99.90
54124;DHT22;55741;53.252;5.788;2022-11-06T12:23:55;11.20;99.90
54124;DHT22;55741;53.252;5.788;2022-11-06T12:26:39;11.20;99.90
54124;DHT22;55741;53.252;5.788;2022-11-06T12:31:45;11.30;99.90
54124;DHT22;55741;53.252;5.788;2022-11-06T12:34:22;11.30;99.90
54124;DHT22;55741;53.252;5.788;2022-11-06T12:39:42;11.40;99.90
54124;DHT22;55741;53.252;5.788;2022-11-06T12:42:11;11.40;99.90
54124;DHT22;55741;53.252;5.788;2022-11-06T12:44:38;11.40;99.90
54124;DHT22;55741;53.252;5.788;2022-11-06T12:47:11;11.50;99.90
54124;DHT22;55741;53.252;5.788;2022-11-06T12:55:28;11.40;99.90
54124;DHT22;55741;53.252;5.788;2022-11-06T13:00:23;11.30;99.90
54124;DHT22;55741;53.252;5.788;2022-11-06T13:05:46;11.30;99.90
54124;DHT22;55741;53.252;5.788;2022-11-06T13:10:50;11.30;99.90
54124;DHT22;55741;53.252;5.788;2022-11-06T13:16:19;11.30;99.90
54124;DHT22;55741;53.252;5.788;2022-11-06T13:18:52;11.30;99.90
54124;DHT22;55741;53.252;5.788;2022-11-06T13:24:17;11.20;99.90
54124;DHT22;55741;53.252;5.788;2022-11-06T13:27:02;11.20;99.90
54124;DHT22;55741;53.252;5.788;2022-11-06T13:29:34;11.10;99.90
54124;DHT22;55741;53.252;5.788;2022-11-06T13:32:04;11.10;99.90
54124;DHT22;55741;53.252;5.788;2022-11-06T13:34:37;11.10;99.90
54124;DHT22;55741;53.252;5.788;2022-11-06T13:37:12;11.10;99.90
54124;DHT22;55741;53.252;5.788;2022-11-06T13:39:49;11.00;99.90
54124;DHT22;55741;53.252;5.788;2022-11-06T13:42:28;10.90;99.90
54124;DHT22;55741;53.252;5.788;2022-11-06T13:44:57;10.90;99.90
54124;DHT22;55741;53.252;5.788;2022-11-06T13:50:05;10.90;99.90
54124;DHT22;55741;53.252;5.788;2022-11-06T14:06:34;10.80;99.90
54124;DHT22;55741;53.252;5.788;2022-11-06T14:09:05;10.80;99.90
54124;DHT22;55741;53.252;5.788;2022-11-06T14:11:38;10.80;99.90
54124;DHT22;55741;53.252;5.788;2022-11-06T14:14:22;10.80;99.90
54124;DHT22;55741;53.252;5.788;2022-11-06T14:17:21;10.80;99.90
54124;DHT22;55741;53.252;5.788;2022-11-06T14:22:23;10.90;99.90
54124;DHT22;55741;53.252;5.788;2022-11-06T14:24:49;10.90;99.90
54124;DHT22;55741;53.252;5.788;2022-11-06T14:34:50;10.90;99.90
54124;DHT22;55741;53.252;5.788;2022-11-06T14:45:18;10.90;99.90
54124;DHT22;55741;53.252;5.788;2022-11-06T14:50:26;10.80;99.90
54124;DHT22;55741;53.252;5.788;2022-11-06T14:55:31;10.80;99.90
54124;DHT22;55741;53.252;5.788;2022-11-06T14:58:10;10.80;99.90
54124;DHT22;55741;53.252;5.788;2022-11-06T15:00:48;10.70;99.90
54124;DHT22;55741;53.252;5.788;2022-11-06T15:06:32;10.70;99.90
54124;DHT22;55741;53.252;5.788;2022-11-06T15:16:37;10.60;99.90
54124;DHT22;55741;53.252;5.788;2022-11-06T15:22:15;10.60;99.90
54124;DHT22;55741;53.252;5.788;2022-11-06T15:24:54;10.60;99.90
54124;DHT22;55741;53.252;5.788;2022-11-06T15:27:29;10.50;99.90
54124;DHT22;55741;53.252;5.788;2022-11-06T15:29:58;10.50;99.90
54124;DHT22;55741;53.252;5.788;2022-11-06T15:32:29;10.50;99.90
54124;DHT22;55741;53.252;5.788;2022-11-06T15:37:50;10.50;99.90
54124;DHT22;55741;53.252;5.788;2022-11-06T15:40:33;10.40;99.90
54124;DHT22;55741;53.252;5.788;2022-11-06T15:43:24;10.40;99.90
54124;DHT22;55741;53.252;5.788;2022-11-06T15:46:26;10.40;99.90
54124;DHT22;55741;53.252;5.788;2022-11-06T15:49:16;10.40;99.90
54124;DHT22;55741;53.252;5.788;2022-11-06T15:52:14;10.30;99.90
54124;DHT22;55741;53.252;5.788;2022-11-06T15:54:41;10.20;99.90
54124;DHT22;55741;53.252;5.788;2022-11-06T15:57:20;10.10;99.90
54124;DHT22;55741;53.252;5.788;2022-11-06T15:59:47;10.10;99.90
54124;DHT22;55741;53.252;5.788;2022-11-06T16:02:19;10.00;99.90
54124;DHT22;55741;53.252;5.788;2022-11-06T16:04:47;10.00;99.90
54124;DHT22;55741;53.252;5.788;2022-11-06T16:07:15;10.00;99.90
54124;DHT22;55741;53.252;5.788;2022-11-06T16:09:42;9.90;99.90
54124;DHT22;55741;53.252;5.788;2022-11-06T16:12:16;9.90;99.90
54124;DHT22;55741;53.252;5.788;2022-11-06T16:14:43;9.90;99.90
54124;DHT22;55741;53.252;5.788;2022-11-06T16:17:16;9.80;99.90
54124;DHT22;55741;53.252;5.788;2022-11-06T16:19:45;9.80;99.90
54124;DHT22;55741;53.252;5.788;2022-11-06T16:22:15;9.80;99.90
54124;DHT22;55741;53.252;5.788;2022-11-06T16:24:49;9.70;99.90
54124;DHT22;55741;53.252;5.788;2022-11-06T16:27:16;9.70;99.90
54124;DHT22;55741;53.252;5.788;2022-11-06T16:29:47;9.70;99.90
54124;DHT22;55741;53.252;5.788;2022-11-06T16:32:16;9.70;99.90
54124;DHT22;55741;53.252;5.788;2022-11-06T16:34:44;9.70;99.90
54124;DHT22;55741;53.252;5.788;2022-11-06T16:39:48;9.60;99.90
54124;DHT22;55741;53.252;5.788;2022-11-06T16:44:58;9.50;99.90
54124;DHT22;55741;53.252;5.788;2022-11-06T16:47:24;9.60;99.90
54124;DHT22;55741;53.252;5.788;2022-11-06T16:49:51;9.50;99.90
54124;DHT22;55741;53.252;5.788;2022-11-06T16:57:48;9.40;99.90
54124;DHT22;55741;53.252;5.788;2022-11-06T17:00:21;9.40;99.90
54124;DHT22;55741;53.252;5.788;2022-11-06T17:02:53;9.40;99.90
54124;DHT22;55741;53.252;5.788;2022-11-06T17:05:21;9.40;99.90
54124;DHT22;55741;53.252;5.788;2022-11-06T17:07:48;9.30;99.90
54124;DHT22;55741;53.252;5.788;2022-11-06T17:13:23;9.30;99.90
54124;DHT22;55741;53.252;5.788;2022-11-06T17:15:56;9.30;99.90
54124;DHT22;55741;53.252;5.788;2022-11-06T17:21:04;9.20;99.90
54124;DHT22;55741;53.252;5.788;2022-11-06T17:23:31;9.20;99.90
54124;DHT22;55741;53.252;5.788;2022-11-06T17:28:28;9.10;99.90
54124;DHT22;55741;53.252;5.788;2022-11-06T17:30:54;9.10;99.90
54124;DHT22;55741;53.252;5.788;2022-11-06T17:33:20;9.00;99.90
54124;DHT22;55741;53.252;5.788;2022-11-06T17:35:47;9.00;99.90
54124;DHT22;55741;53.252;5.788;2022-11-06T17:38:16;8.90;99.90
54124;DHT22;55741;53.252;5.788;2022-11-06T17:40:43;8.90;99.90
54124;DHT22;55741;53.252;5.788;2022-11-06T17:43:10;8.90;99.90
54124;DHT22;55741;53.252;5.788;2022-11-06T17:45:37;8.90;99.90
54124;DHT22;55741;53.252;5.788;2022-11-06T17:48:04;8.80;99.90
54124;DHT22;55741;53.252;5.788;2022-11-06T17:50:29;8.80;99.90
54124;DHT22;55741;53.252;5.788;2022-11-06T17:53:15;8.70;99.90
54124;DHT22;55741;53.252;5.788;2022-11-06T17:55:41;8.70;99.90
54124;DHT22;55741;53.252;5.788;2022-11-06T17:58:07;8.60;99.90
54124;DHT22;55741;53.252;5.788;2022-11-06T18:00:33;8.60;99.90
54124;DHT22;55741;53.252;5.788;2022-11-06T18:02:58;8.60;99.90
54124;DHT22;55741;53.252;5.788;2022-11-06T18:05:25;8.50;99.90
54124;DHT22;55741;53.252;5.788;2022-11-06T18:07:50;8.50;99.90
54124;DHT22;55741;53.252;5.788;2022-11-06T18:10:16;8.40;99.90
54124;DHT22;55741;53.252;5.788;2022-11-06T18:12:42;8.40;99.90
54124;DHT22;55741;53.252;5.788;2022-11-06T18:15:08;8.30;99.90
54124;DHT22;55741;53.252;5.788;2022-11-06T18:17:34;8.30;99.90